sensor_id;sensor_type;location;lat;lon;timestamp;temperature;humidity
10231;DHT22;62604;49.432;8.680;2022-12-24T00:01:40;10.30;99.90
10231;DHT22;62604;49.432;8.680;2022-12-24T00:04:07;10.30;99.90
10231;DHT22;62604;49.432;8.680;2022-12-24T00:06:35;10.30;99.90
10231;DHT22;62604;49.432;8.680;2022-12-24T00:09:02;10.30;99.90
10231;DHT22;62604;49.432;8.680;2022-12-24T00:11:29;10.40;99.90
10231;DHT22;62604;49.432;8.680;2022-12-24T00:13:56;10.40;99.90
10231;DHT22;62604;49.432;8.680;2022-12-24T00:16:23;10.40;99.90
10231;DHT22;62604;49.432;8.680;2022-12-24T00:18:50;10.40;99.90
10231;DHT22;62604;49.432;8.680;2022-12-24T00:21:17;10.40;99.90
10231;DHT22;62604;49.432;8.680;2022-12-24T00:23:45;10.50;99.90
10231;DHT22;62604;49.432;8.680;2022-12-24T00:26:13;10.50;99.90
10231;DHT22;62604;49.432;8.680;2022-12-24T00:28:40;10.60;99.90
10231;DHT22;62604;49.432;8.680;2022-12-24T00:31:09;10.60;99.90
10231;DHT22;62604;49.432;8.680;2022-12-24T00:33:36;10.70;99.90
10231;DHT22;62604;49.432;8.680;2022-12-24T00:36:03;10.80;99.90
10231;DHT22;62604;49.432;8.680;2022-12-24T00:38:31;10.80;99.90
10231;DHT22;62604;49.432;8.680;2022-12-24T00:41:00;10.90;99.90
10231;DHT22;62604;49.432;8.680;2022-12-24T00:43:28;10.90;99.90
10231;DHT22;62604;49.432;8.680;2022-12-24T00:45:56;10.90;99.90
10231;DHT22;62604;49.432;8.680;2022-12-24T00:48:23;10.90;99.90
10231;DHT22;62604;49.432;8.680;2022-12-24T00:50:50;10.90;99.90
10231;DHT22;62604;49.432;8.680;2022-12-24T00:53:18;10.90;99.90
10231;DHT22;62604;49.432;8.680;2022-12-24T00:55:45;10.90;99.90
10231;DHT22;62604;49.432;8.680;2022-12-24T00:58:13;10.90;99.90
10231;DHT22;62604;49.432;8.680;2022-12-24T01:00:40;10.80;99.90
10231;DHT22;62604;49.432;8.680;2022-12-24T01:03:07;10.70;99.90
10231;DHT22;62604;49.432;8.680;2022-12-24T01:05:34;10.70;99.90
10231;DHT22;62604;49.432;8.680;2022-12-24T01:08:00;10.70;99.90
10231;DHT22;62604;49.432;8.680;2022-12-24T01:10:27;10.70;99.90
10231;DHT22;62604;49.432;8.680;2022-12-24T01:12:54;10.60;99.90
10231;DHT22;62604;49.432;8.680;2022-12-24T01:15:22;10.60;99.90
10231;DHT22;62604;49.432;8.680;2022-12-24T01:17:49;10.60;99.90
10231;DHT22;62604;49.432;8.680;2022-12-24T01:20:16;10.50;99.90
10231;DHT22;62604;49.432;8.680;2022-12-24T01:22:43;10.50;99.90
10231;DHT22;62604;49.432;8.680;2022-12-24T01:25:11;10.50;99.90
10231;DHT22;62604;49.432;8.680;2022-12-24T01:27:38;10.50;99.90
10231;DHT22;62604;49.432;8.680;2022-12-24T01:30:06;10.40;99.90
10231;DHT22;62604;49.432;8.680;2022-12-24T01:32:35;10.40;99.90
10231;DHT22;62604;49.432;8.680;2022-12-24T01:35:03;10.40;99.90
10231;DHT22;62604;49.432;8.680;2022-12-24T01:37:30;10.40;99.90
10231;DHT22;62604;49.432;8.680;2022-12-24T01:39:57;10.40;99.90
10231;DHT22;62604;49.432;8.680;2022-12-24T01:42:38;10.40;99.90
10231;DHT22;62604;49.432;8.680;2022-12-24T01:45:47;10.30;99.90
10231;DHT22;62604;49.432;8.680;2022-12-24T01:48:30;10.20;99.90
10231;DHT22;62604;49.432;8.680;2022-12-24T01:51:03;10.10;99.90
10231;DHT22;62604;49.432;8.680;2022-12-24T01:53:34;10.10;99.90
10231;DHT22;62604;49.432;8.680;2022-12-24T01:56:04;10.10;99.90
10231;DHT22;62604;49.432;8.680;2022-12-24T01:58:32;10.00;99.90
10231;DHT22;62604;49.432;8.680;2022-12-24T02:01:00;10.10;99.90
10231;DHT22;62604;49.432;8.680;2022-12-24T02:03:28;10.20;99.90
10231;DHT22;62604;49.432;8.680;2022-12-24T02:05:57;10.20;99.90
10231;DHT22;62604;49.432;8.680;2022-12-24T02:08:25;10.20;99.90
10231;DHT22;62604;49.432;8.680;2022-12-24T02:11:11;10.20;99.90
10231;DHT22;62604;49.432;8.680;2022-12-24T02:13:39;10.20;99.90
10231;DHT22;62604;49.432;8.680;2022-12-24T02:16:13;10.30;99.90
10231;DHT22;62604;49.432;8.680;2022-12-24T02:18:52;10.30;99.90
10231;DHT22;62604;49.432;8.680;2022-12-24T02:21:41;10.30;99.90
10231;DHT22;62604;49.432;8.680;2022-12-24T02:24:31;10.30;99.90
10231;DHT22;62604;49.432;8.680;2022-12-24T02:27:18;10.30;99.90
10231;DHT22;62604;49.432;8.680;2022-12-24T02:30:05;10.30;99.90
10231;DHT22;62604;49.432;8.680;2022-12-24T02:32:38;10.30;99.90
10231;DHT22;62604;49.432;8.680;2022-12-24T02:35:11;10.20;99.90
10231;DHT22;62604;49.432;8.680;2022-12-24T02:37:43;10.20;99.90
10231;DHT22;62604;49.432;8.680;2022-12-24T02:40:15;10.10;99.90
10231;DHT22;62604;49.432;8.680;2022-12-24T02:42:47;10.10;99.90
10231;DHT22;62604;49.432;8.680;2022-12-24T02:45:19;10.10;99.90
10231;DHT22;62604;49.432;8.680;2022-12-24T02:47:48;10.00;99.90
10231;DHT22;62604;49.432;8.680;2022-12-24T02:50:17;9.90;99.90
10231;DHT22;62604;49.432;8.680;2022-12-24T02:52:45;9.80;99.90
10231;DHT22;62604;49.432;8.680;2022-12-24T02:55:15;9.70;99.90
10231;DHT22;62604;49.432;8.680;2022-12-24T02:57:55;9.70;99.90
10231;DHT22;62604;49.432;8.680;2022-12-24T03:00:32;9.70;99.90
10231;DHT22;62604;49.432;8.680;2022-12-24T03:03:11;9.70;99.90
10231;DHT22;62604;49.432;8.680;2022-12-24T03:05:47;9.80;99.90
10231;DHT22;62604;49.432;8.680;2022-12-24T03:08:20;9.70;99.90
10231;DHT22;62604;49.432;8.680;2022-12-24T03:10:54;9.70;99.90
10231;DHT22;62604;49.432;8.680;2022-12-24T03:13:23;9.60;99.90
10231;DHT22;62604;49.432;8.680;2022-12-24T03:15:52;9.60;99.90
10231;DHT22;62604;49.432;8.680;2022-12-24T03:18:20;9.50;99.90
10231;DHT22;62604;49.432;8.680;2022-12-24T03:20:52;9.50;99.90
10231;DHT22;62604;49.432;8.680;2022-12-24T03:23:20;9.40;99.90
10231;DHT22;62604;49.432;8.680;2022-12-24T03:25:47;9.40;99.90
10231;DHT22;62604;49.432;8.680;2022-12-24T03:28:16;9.50;99.90
10231;DHT22;62604;49.432;8.680;2022-12-24T03:30:46;9.50;99.90
10231;DHT22;62604;49.432;8.680;2022-12-24T03:33:15;9.60;99.90
10231;DHT22;62604;49.432;8.680;2022-12-24T03:35:42;9.50;99.90
10231;DHT22;62604;49.432;8.680;2022-12-24T03:38:09;9.50;99.90
10231;DHT22;62604;49.432;8.680;2022-12-24T03:40:36;9.50;99.90
10231;DHT22;62604;49.432;8.680;2022-12-24T03:43:03;9.50;99.90
10231;DHT22;62604;49.432;8.680;2022-12-24T03:45:30;9.40;99.90
10231;DHT22;62604;49.432;8.680;2022-12-24T03:47:57;9.50;99.90
10231;DHT22;62604;49.432;8.680;2022-12-24T03:50:25;9.50;99.90
10231;DHT22;62604;49.432;8.680;2022-12-24T03:52:53;9.60;99.90
10231;DHT22;62604;49.432;8.680;2022-12-24T03:55:20;9.60;99.90
10231;DHT22;62604;49.432;8.680;2022-12-24T03:57:47;9.70;99.90
10231;DHT22;62604;49.432;8.680;2022-12-24T04:00:15;9.60;99.90
10231;DHT22;62604;49.432;8.680;2022-12-24T04:02:42;9.60;99.90
10231;DHT22;62604;49.432;8.680;2022-12-24T04:05:12;9.70;99.90
10231;DHT22;62604;49.432;8.680;2022-12-24T04:07:41;9.60;99.90
10231;DHT22;62604;49.432;8.680;2022-12-24T04:12:50;9.60;99.90
10231;DHT22;62604;49.432;8.680;2022-12-24T04:15:17;9.70;99.90
10231;DHT22;62604;49.432;8.680;2022-12-24T04:17:44;9.70;99.90
10231;DHT22;62604;49.432;8.680;2022-12-24T04:20:11;9.70;99.90
10231;DHT22;62604;49.432;8.680;2022-12-24T04:22:39;10.00;99.90
10231;DHT22;62604;49.432;8.680;2022-12-24T04:25:09;10.00;99.90
10231;DHT22;62604;49.432;8.680;2022-12-24T04:27:36;10.10;99.90
10231;DHT22;62604;49.432;8.680;2022-12-24T04:30:04;10.10;99.90
10231;DHT22;62604;49.432;8.680;2022-12-24T04:32:32;10.20;99.90
10231;DHT22;62604;49.432;8.680;2022-12-24T04:34:58;10.10;99.90
10231;DHT22;62604;49.432;8.680;2022-12-24T04:37:26;10.10;99.90
10231;DHT22;62604;49.432;8.680;2022-12-24T04:39:53;10.10;99.90
10231;DHT22;62604;49.432;8.680;2022-12-24T04:42:21;10.00;99.90
10231;DHT22;62604;49.432;8.680;2022-12-24T04:44:49;10.10;99.90
10231;DHT22;62604;49.432;8.680;2022-12-24T04:47:16;10.10;99.90
10231;DHT22;62604;49.432;8.680;2022-12-24T04:49:43;10.10;99.90
10231;DHT22;62604;49.432;8.680;2022-12-24T04:52:10;10.10;99.90
10231;DHT22;62604;49.432;8.680;2022-12-24T04:54:37;10.10;99.90
10231;DHT22;62604;49.432;8.680;2022-12-24T04:57:05;10.20;99.90
10231;DHT22;62604;49.432;8.680;2022-12-24T04:59:34;10.20;99.90
10231;DHT22;62604;49.432;8.680;2022-12-24T05:02:02;10.20;99.90
10231;DHT22;62604;49.432;8.680;2022-12-24T05:04:29;10.20;99.90
10231;DHT22;62604;49.432;8.680;2022-12-24T05:06:57;10.30;99.90
10231;DHT22;62604;49.432;8.680;2022-12-24T05:09:24;10.20;99.90
10231;DHT22;62604;49.432;8.680;2022-12-24T05:11:51;10.20;99.90
10231;DHT22;62604;49.432;8.680;2022-12-24T05:14:18;10.30;99.90
10231;DHT22;62604;49.432;8.680;2022-12-24T05:16:46;10.20;99.90
10231;DHT22;62604;49.432;8.680;2022-12-24T05:19:13;10.20;99.90
10231;DHT22;62604;49.432;8.680;2022-12-24T05:21:40;10.20;99.90
10231;DHT22;62604;49.432;8.680;2022-12-24T05:24:09;10.10;99.90
10231;DHT22;62604;49.432;8.680;2022-12-24T05:26:55;10.10;99.90
10231;DHT22;62604;49.432;8.680;2022-12-24T05:29:23;10.00;99.90
10231;DHT22;62604;49.432;8.680;2022-12-24T05:31:52;9.90;99.90
10231;DHT22;62604;49.432;8.680;2022-12-24T05:34:20;9.90;99.90
10231;DHT22;62604;49.432;8.680;2022-12-24T05:36:46;9.90;99.90
10231;DHT22;62604;49.432;8.680;2022-12-24T05:39:14;10.00;99.90
10231;DHT22;62604;49.432;8.680;2022-12-24T05:41:43;10.00;99.90
10231;DHT22;62604;49.432;8.680;2022-12-24T05:44:10;10.10;99.90
10231;DHT22;62604;49.432;8.680;2022-12-24T05:46:37;10.10;99.90
10231;DHT22;62604;49.432;8.680;2022-12-24T05:49:07;10.10;99.90
10231;DHT22;62604;49.432;8.680;2022-12-24T05:51:34;10.10;99.90
10231;DHT22;62604;49.432;8.680;2022-12-24T05:54:02;10.00;99.90
10231;DHT22;62604;49.432;8.680;2022-12-24T05:56:29;10.00;99.90
10231;DHT22;62604;49.432;8.680;2022-12-24T05:58:56;10.00;99.90
10231;DHT22;62604;49.432;8.680;2022-12-24T06:01:25;10.10;99.90
10231;DHT22;62604;49.432;8.680;2022-12-24T06:03:55;10.00;99.90
10231;DHT22;62604;49.432;8.680;2022-12-24T06:06:25;10.10;99.90
10231;DHT22;62604;49.432;8.680;2022-12-24T06:08:53;10.10;99.90
10231;DHT22;62604;49.432;8.680;2022-12-24T06:11:23;10.10;99.90
10231;DHT22;62604;49.432;8.680;2022-12-24T06:13:51;10.20;99.90
10231;DHT22;62604;49.432;8.680;2022-12-24T06:16:21;10.30;99.90
10231;DHT22;62604;49.432;8.680;2022-12-24T06:18:48;10.30;99.90
10231;DHT22;62604;49.432;8.680;2022-12-24T06:21:16;10.40;99.90
10231;DHT22;62604;49.432;8.680;2022-12-24T06:23:45;10.40;99.90
10231;DHT22;62604;49.432;8.680;2022-12-24T06:26:14;10.40;99.90
10231;DHT22;62604;49.432;8.680;2022-12-24T06:28:43;10.40;99.90
10231;DHT22;62604;49.432;8.680;2022-12-24T06:31:13;10.40;99.90
10231;DHT22;62604;49.432;8.680;2022-12-24T06:33:40;10.40;99.90
10231;DHT22;62604;49.432;8.680;2022-12-24T06:36:12;10.30;99.90
10231;DHT22;62604;49.432;8.680;2022-12-24T06:38:40;10.30;99.90
10231;DHT22;62604;49.432;8.680;2022-12-24T06:41:09;10.30;99.90
10231;DHT22;62604;49.432;8.680;2022-12-24T06:43:36;10.30;99.90
10231;DHT22;62604;49.432;8.680;2022-12-24T06:46:04;10.20;99.90
10231;DHT22;62604;49.432;8.680;2022-12-24T06:48:31;10.20;99.90
10231;DHT22;62604;49.432;8.680;2022-12-24T06:51:00;10.20;99.90
10231;DHT22;62604;49.432;8.680;2022-12-24T06:53:28;10.20;99.90
10231;DHT22;62604;49.432;8.680;2022-12-24T06:56:00;10.20;99.90
10231;DHT22;62604;49.432;8.680;2022-12-24T06:58:29;10.20;99.90
10231;DHT22;62604;49.432;8.680;2022-12-24T07:00:56;10.30;99.90
10231;DHT22;62604;49.432;8.680;2022-12-24T07:03:24;10.30;99.90
10231;DHT22;62604;49.432;8.680;2022-12-24T07:05:50;10.30;99.90
10231;DHT22;62604;49.432;8.680;2022-12-24T07:08:20;10.40;99.90
10231;DHT22;62604;49.432;8.680;2022-12-24T07:10:48;10.40;99.90
10231;DHT22;62604;49.432;8.680;2022-12-24T07:13:16;10.40;99.90
10231;DHT22;62604;49.432;8.680;2022-12-24T07:15:45;10.40;99.90
10231;DHT22;62604;49.432;8.680;2022-12-24T07:18:12;10.40;99.90
10231;DHT22;62604;49.432;8.680;2022-12-24T07:20:41;10.40;99.90
10231;DHT22;62604;49.432;8.680;2022-12-24T07:23:08;10.50;99.90
10231;DHT22;62604;49.432;8.680;2022-12-24T07:25:36;10.50;99.90
10231;DHT22;62604;49.432;8.680;2022-12-24T07:28:04;10.50;99.90
10231;DHT22;62604;49.432;8.680;2022-12-24T07:30:31;10.60;99.90
10231;DHT22;62604;49.432;8.680;2022-12-24T07:33:00;10.60;99.90
10231;DHT22;62604;49.432;8.680;2022-12-24T07:35:27;10.60;99.90
10231;DHT22;62604;49.432;8.680;2022-12-24T07:37:55;10.60;99.90
10231;DHT22;62604;49.432;8.680;2022-12-24T07:40:26;10.60;99.90
10231;DHT22;62604;49.432;8.680;2022-12-24T07:42:53;10.80;99.90
10231;DHT22;62604;49.432;8.680;2022-12-24T07:45:20;10.60;99.90
10231;DHT22;62604;49.432;8.680;2022-12-24T07:47:48;10.60;99.90
10231;DHT22;62604;49.432;8.680;2022-12-24T07:50:18;10.60;99.90
10231;DHT22;62604;49.432;8.680;2022-12-24T07:52:46;10.60;99.90
10231;DHT22;62604;49.432;8.680;2022-12-24T07:55:13;10.60;99.90
10231;DHT22;62604;49.432;8.680;2022-12-24T07:57:40;10.70;99.90
10231;DHT22;62604;49.432;8.680;2022-12-24T08:00:08;10.60;99.90
10231;DHT22;62604;49.432;8.680;2022-12-24T08:02:36;10.70;99.90
10231;DHT22;62604;49.432;8.680;2022-12-24T08:05:04;10.70;99.90
10231;DHT22;62604;49.432;8.680;2022-12-24T08:07:33;10.60;99.90
10231;DHT22;62604;49.432;8.680;2022-12-24T08:10:00;10.70;99.90
10231;DHT22;62604;49.432;8.680;2022-12-24T08:12:27;10.70;99.90
10231;DHT22;62604;49.432;8.680;2022-12-24T08:14:54;10.70;99.90
10231;DHT22;62604;49.432;8.680;2022-12-24T08:17:22;10.80;99.90
10231;DHT22;62604;49.432;8.680;2022-12-24T08:19:51;10.80;99.90
10231;DHT22;62604;49.432;8.680;2022-12-24T08:22:18;10.80;99.90
10231;DHT22;62604;49.432;8.680;2022-12-24T08:24:49;10.90;99.90
10231;DHT22;62604;49.432;8.680;2022-12-24T08:27:16;10.90;99.90
10231;DHT22;62604;49.432;8.680;2022-12-24T08:29:47;11.00;99.90
10231;DHT22;62604;49.432;8.680;2022-12-24T08:32:14;11.00;99.90
10231;DHT22;62604;49.432;8.680;2022-12-24T08:34:41;11.00;99.90
10231;DHT22;62604;49.432;8.680;2022-12-24T08:37:09;11.00;99.90
10231;DHT22;62604;49.432;8.680;2022-12-24T08:39:36;11.10;99.90
10231;DHT22;62604;49.432;8.680;2022-12-24T08:42:05;11.10;99.90
10231;DHT22;62604;49.432;8.680;2022-12-24T08:44:33;11.10;99.90
10231;DHT22;62604;49.432;8.680;2022-12-24T08:47:00;11.20;99.90
10231;DHT22;62604;49.432;8.680;2022-12-24T08:49:28;11.30;99.90
10231;DHT22;62604;49.432;8.680;2022-12-24T08:51:56;11.40;99.90
10231;DHT22;62604;49.432;8.680;2022-12-24T08:54:26;11.50;99.90
10231;DHT22;62604;49.432;8.680;2022-12-24T08:56:53;11.50;99.90
10231;DHT22;62604;49.432;8.680;2022-12-24T08:59:22;11.50;99.90
10231;DHT22;62604;49.432;8.680;2022-12-24T09:01:49;11.60;99.90
10231;DHT22;62604;49.432;8.680;2022-12-24T09:04:16;11.60;99.90
10231;DHT22;62604;49.432;8.680;2022-12-24T09:06:44;11.70;99.90
10231;DHT22;62604;49.432;8.680;2022-12-24T09:09:11;11.80;99.90
10231;DHT22;62604;49.432;8.680;2022-12-24T09:11:40;11.90;99.90
10231;DHT22;62604;49.432;8.680;2022-12-24T09:14:07;11.90;99.90
10231;DHT22;62604;49.432;8.680;2022-12-24T09:16:38;11.90;99.90
10231;DHT22;62604;49.432;8.680;2022-12-24T09:19:05;12.10;99.90
10231;DHT22;62604;49.432;8.680;2022-12-24T09:21:33;12.10;99.90
10231;DHT22;62604;49.432;8.680;2022-12-24T09:24:04;12.20;99.90
10231;DHT22;62604;49.432;8.680;2022-12-24T09:26:32;12.20;99.90
10231;DHT22;62604;49.432;8.680;2022-12-24T09:29:01;12.10;99.90
10231;DHT22;62604;49.432;8.680;2022-12-24T09:31:30;12.00;99.90
10231;DHT22;62604;49.432;8.680;2022-12-24T09:34:14;12.00;99.90
10231;DHT22;62604;49.432;8.680;2022-12-24T09:36:41;12.20;99.90
10231;DHT22;62604;49.432;8.680;2022-12-24T09:39:08;12.30;99.90
10231;DHT22;62604;49.432;8.680;2022-12-24T09:41:46;12.50;99.90
10231;DHT22;62604;49.432;8.680;2022-12-24T09:44:34;12.50;99.90
10231;DHT22;62604;49.432;8.680;2022-12-24T09:47:09;12.50;99.90
10231;DHT22;62604;49.432;8.680;2022-12-24T09:49:42;12.60;99.90
10231;DHT22;62604;49.432;8.680;2022-12-24T09:52:14;12.60;99.90
10231;DHT22;62604;49.432;8.680;2022-12-24T09:54:47;12.60;99.90
10231;DHT22;62604;49.432;8.680;2022-12-24T09:57:24;12.50;99.90
10231;DHT22;62604;49.432;8.680;2022-12-24T09:59:52;12.60;99.90
10231;DHT22;62604;49.432;8.680;2022-12-24T10:02:19;12.60;99.90
10231;DHT22;62604;49.432;8.680;2022-12-24T10:04:49;12.60;99.90
10231;DHT22;62604;49.432;8.680;2022-12-24T10:07:29;12.70;99.90
10231;DHT22;62604;49.432;8.680;2022-12-24T10:10:05;12.70;99.90
10231;DHT22;62604;49.432;8.680;2022-12-24T10:12:43;12.80;99.90
10231;DHT22;62604;49.432;8.680;2022-12-24T10:15:19;12.70;99.90
10231;DHT22;62604;49.432;8.680;2022-12-24T10:18:03;12.90;99.90
10231;DHT22;62604;49.432;8.680;2022-12-24T10:20:44;13.10;99.90
10231;DHT22;62604;49.432;8.680;2022-12-24T10:23:23;13.10;99.90
10231;DHT22;62604;49.432;8.680;2022-12-24T10:26:03;13.10;99.90
10231;DHT22;62604;49.432;8.680;2022-12-24T10:28:43;13.00;99.90
10231;DHT22;62604;49.432;8.680;2022-12-24T10:31:14;13.10;99.90
10231;DHT22;62604;49.432;8.680;2022-12-24T10:33:43;13.10;99.90
10231;DHT22;62604;49.432;8.680;2022-12-24T10:36:16;13.00;99.90
10231;DHT22;62604;49.432;8.680;2022-12-24T10:38:44;13.00;99.90
10231;DHT22;62604;49.432;8.680;2022-12-24T10:41:13;13.00;99.90
10231;DHT22;62604;49.432;8.680;2022-12-24T10:43:43;13.10;99.90
10231;DHT22;62604;49.432;8.680;2022-12-24T10:46:17;13.20;99.90
10231;DHT22;62604;49.432;8.680;2022-12-24T10:48:49;13.20;99.90
10231;DHT22;62604;49.432;8.680;2022-12-24T10:51:28;13.30;99.90
10231;DHT22;62604;49.432;8.680;2022-12-24T10:54:04;13.30;99.90
10231;DHT22;62604;49.432;8.680;2022-12-24T10:56:38;13.20;99.90
10231;DHT22;62604;49.432;8.680;2022-12-24T10:59:08;13.10;99.90
10231;DHT22;62604;49.432;8.680;2022-12-24T11:01:54;13.00;99.90
10231;DHT22;62604;49.432;8.680;2022-12-24T11:04:24;13.00;99.90
10231;DHT22;62604;49.432;8.680;2022-12-24T11:06:56;13.00;99.90
10231;DHT22;62604;49.432;8.680;2022-12-24T11:09:25;13.10;99.90
10231;DHT22;62604;49.432;8.680;2022-12-24T11:11:55;13.00;99.90
10231;DHT22;62604;49.432;8.680;2022-12-24T11:14:25;12.90;99.90
10231;DHT22;62604;49.432;8.680;2022-12-24T11:16:55;13.00;99.90
10231;DHT22;62604;49.432;8.680;2022-12-24T11:19:32;13.00;99.90
10231;DHT22;62604;49.432;8.680;2022-12-24T11:22:05;12.90;99.90
10231;DHT22;62604;49.432;8.680;2022-12-24T11:24:33;13.00;99.90
10231;DHT22;62604;49.432;8.680;2022-12-24T11:27:27;13.00;99.90
10231;DHT22;62604;49.432;8.680;2022-12-24T11:30:21;13.10;99.90
10231;DHT22;62604;49.432;8.680;2022-12-24T11:32:50;13.30;99.90
10231;DHT22;62604;49.432;8.680;2022-12-24T11:35:39;13.60;99.90
10231;DHT22;62604;49.432;8.680;2022-12-24T11:38:16;13.70;99.90
10231;DHT22;62604;49.432;8.680;2022-12-24T11:40:47;13.80;99.90
10231;DHT22;62604;49.432;8.680;2022-12-24T11:43:16;13.70;99.90
10231;DHT22;62604;49.432;8.680;2022-12-24T11:45:49;13.60;99.90
10231;DHT22;62604;49.432;8.680;2022-12-24T11:48:34;13.60;99.90
10231;DHT22;62604;49.432;8.680;2022-12-24T11:51:08;13.60;99.90
10231;DHT22;62604;49.432;8.680;2022-12-24T11:53:49;13.60;99.90
10231;DHT22;62604;49.432;8.680;2022-12-24T11:56:26;13.40;99.90
10231;DHT22;62604;49.432;8.680;2022-12-24T11:58:57;13.30;99.90
10231;DHT22;62604;49.432;8.680;2022-12-24T12:01:29;13.30;99.90
10231;DHT22;62604;49.432;8.680;2022-12-24T12:04:02;13.20;99.90
10231;DHT22;62604;49.432;8.680;2022-12-24T12:06:36;13.10;99.90
10231;DHT22;62604;49.432;8.680;2022-12-24T12:09:11;13.10;99.90
10231;DHT22;62604;49.432;8.680;2022-12-24T12:11:44;13.10;99.90
10231;DHT22;62604;49.432;8.680;2022-12-24T12:14:19;13.00;99.90
10231;DHT22;62604;49.432;8.680;2022-12-24T12:16:54;13.00;99.90
10231;DHT22;62604;49.432;8.680;2022-12-24T12:19:42;13.10;99.90
10231;DHT22;62604;49.432;8.680;2022-12-24T12:22:22;13.20;99.90
10231;DHT22;62604;49.432;8.680;2022-12-24T12:25:18;13.30;99.90
10231;DHT22;62604;49.432;8.680;2022-12-24T12:27:50;13.50;99.90
10231;DHT22;62604;49.432;8.680;2022-12-24T12:30:20;13.60;99.90
10231;DHT22;62604;49.432;8.680;2022-12-24T12:32:52;13.60;99.90
10231;DHT22;62604;49.432;8.680;2022-12-24T12:35:24;13.50;99.90
10231;DHT22;62604;49.432;8.680;2022-12-24T12:37:57;13.40;99.90
10231;DHT22;62604;49.432;8.680;2022-12-24T12:40:43;13.30;99.90
10231;DHT22;62604;49.432;8.680;2022-12-24T12:43:25;13.30;99.90
10231;DHT22;62604;49.432;8.680;2022-12-24T12:45:58;13.40;99.90
10231;DHT22;62604;49.432;8.680;2022-12-24T12:48:44;13.40;99.90
10231;DHT22;62604;49.432;8.680;2022-12-24T12:51:21;13.50;99.90
10231;DHT22;62604;49.432;8.680;2022-12-24T12:54:15;13.50;99.90
10231;DHT22;62604;49.432;8.680;2022-12-24T13:02:46;13.10;99.90
10231;DHT22;62604;49.432;8.680;2022-12-24T13:08:46;12.90;99.90
10231;DHT22;62604;49.432;8.680;2022-12-24T13:11:37;12.80;99.90
10231;DHT22;62604;49.432;8.680;2022-12-24T13:14:21;12.70;99.90
10231;DHT22;62604;49.432;8.680;2022-12-24T13:17:26;12.60;99.90
10231;DHT22;62604;49.432;8.680;2022-12-24T13:20:13;12.50;99.90
10231;DHT22;62604;49.432;8.680;2022-12-24T13:22:50;12.50;99.90
10231;DHT22;62604;49.432;8.680;2022-12-24T13:25:22;12.40;99.90
10231;DHT22;62604;49.432;8.680;2022-12-24T13:27:49;12.40;99.90
10231;DHT22;62604;49.432;8.680;2022-12-24T13:30:35;12.40;99.90
10231;DHT22;62604;49.432;8.680;2022-12-24T13:33:02;12.30;99.90
10231;DHT22;62604;49.432;8.680;2022-12-24T13:35:36;12.30;99.90
10231;DHT22;62604;49.432;8.680;2022-12-24T13:38:41;12.30;99.90
10231;DHT22;62604;49.432;8.680;2022-12-24T13:41:36;12.30;99.90
10231;DHT22;62604;49.432;8.680;2022-12-24T13:44:18;12.30;99.90
10231;DHT22;62604;49.432;8.680;2022-12-24T13:46:48;12.20;99.90
10231;DHT22;62604;49.432;8.680;2022-12-24T13:49:18;12.20;99.90
10231;DHT22;62604;49.432;8.680;2022-12-24T13:51:47;12.20;99.90
10231;DHT22;62604;49.432;8.680;2022-12-24T13:54:18;12.20;99.90
10231;DHT22;62604;49.432;8.680;2022-12-24T13:56:50;12.10;99.90
10231;DHT22;62604;49.432;8.680;2022-12-24T13:59:33;12.10;99.90
10231;DHT22;62604;49.432;8.680;2022-12-24T14:02:00;12.10;99.90
10231;DHT22;62604;49.432;8.680;2022-12-24T14:04:30;12.00;99.90
10231;DHT22;62604;49.432;8.680;2022-12-24T14:07:02;11.90;99.90
10231;DHT22;62604;49.432;8.680;2022-12-24T14:09:31;11.90;99.90
10231;DHT22;62604;49.432;8.680;2022-12-24T14:12:30;11.80;99.90
10231;DHT22;62604;49.432;8.680;2022-12-24T14:14:57;11.80;99.90
10231;DHT22;62604;49.432;8.680;2022-12-24T14:17:25;11.70;99.90
10231;DHT22;62604;49.432;8.680;2022-12-24T14:19:55;11.60;99.90
10231;DHT22;62604;49.432;8.680;2022-12-24T14:22:27;11.60;99.90
10231;DHT22;62604;49.432;8.680;2022-12-24T14:24:58;11.50;99.90
10231;DHT22;62604;49.432;8.680;2022-12-24T14:27:31;11.40;99.90
10231;DHT22;62604;49.432;8.680;2022-12-24T14:30:02;11.40;99.90
10231;DHT22;62604;49.432;8.680;2022-12-24T14:32:34;11.30;99.90
10231;DHT22;62604;49.432;8.680;2022-12-24T14:35:06;11.40;99.90
10231;DHT22;62604;49.432;8.680;2022-12-24T14:37:35;11.30;99.90
10231;DHT22;62604;49.432;8.680;2022-12-24T14:40:02;11.30;99.90
10231;DHT22;62604;49.432;8.680;2022-12-24T14:42:36;11.30;99.90
10231;DHT22;62604;49.432;8.680;2022-12-24T14:45:14;11.30;99.90
10231;DHT22;62604;49.432;8.680;2022-12-24T14:47:46;11.30;99.90
10231;DHT22;62604;49.432;8.680;2022-12-24T14:50:35;11.30;99.90
10231;DHT22;62604;49.432;8.680;2022-12-24T14:53:18;11.30;99.90
10231;DHT22;62604;49.432;8.680;2022-12-24T14:55:48;11.20;99.90
10231;DHT22;62604;49.432;8.680;2022-12-24T14:58:24;11.20;99.90
10231;DHT22;62604;49.432;8.680;2022-12-24T15:01:18;11.20;99.90
10231;DHT22;62604;49.432;8.680;2022-12-24T15:03:45;11.10;99.90
10231;DHT22;62604;49.432;8.680;2022-12-24T15:06:32;11.00;99.90
10231;DHT22;62604;49.432;8.680;2022-12-24T15:09:03;11.00;99.90
10231;DHT22;62604;49.432;8.680;2022-12-24T15:11:37;10.90;99.90
10231;DHT22;62604;49.432;8.680;2022-12-24T15:14:05;10.90;99.90
10231;DHT22;62604;49.432;8.680;2022-12-24T15:16:36;10.90;99.90
10231;DHT22;62604;49.432;8.680;2022-12-24T15:19:12;10.90;99.90
10231;DHT22;62604;49.432;8.680;2022-12-24T15:21:47;10.90;99.90
10231;DHT22;62604;49.432;8.680;2022-12-24T15:24:29;10.90;99.90
10231;DHT22;62604;49.432;8.680;2022-12-24T15:26:58;10.80;99.90
10231;DHT22;62604;49.432;8.680;2022-12-24T15:29:29;10.80;99.90
10231;DHT22;62604;49.432;8.680;2022-12-24T15:31:58;10.80;99.90
10231;DHT22;62604;49.432;8.680;2022-12-24T15:34:27;10.80;99.90
10231;DHT22;62604;49.432;8.680;2022-12-24T15:37:01;10.80;99.90
10231;DHT22;62604;49.432;8.680;2022-12-24T15:39:30;10.80;99.90
10231;DHT22;62604;49.432;8.680;2022-12-24T15:41:57;10.80;99.90
10231;DHT22;62604;49.432;8.680;2022-12-24T15:44:43;10.80;99.90
10231;DHT22;62604;49.432;8.680;2022-12-24T15:47:17;10.70;99.90
10231;DHT22;62604;49.432;8.680;2022-12-24T15:49:47;10.60;99.90
10231;DHT22;62604;49.432;8.680;2022-12-24T15:52:18;10.50;99.90
10231;DHT22;62604;49.432;8.680;2022-12-24T15:54:50;10.50;99.90
10231;DHT22;62604;49.432;8.680;2022-12-24T15:57:23;10.50;99.90
10231;DHT22;62604;49.432;8.680;2022-12-24T15:59:52;10.40;99.90
10231;DHT22;62604;49.432;8.680;2022-12-24T16:02:38;10.40;99.90
10231;DHT22;62604;49.432;8.680;2022-12-24T16:05:26;10.40;99.90
10231;DHT22;62604;49.432;8.680;2022-12-24T16:10:48;10.50;99.90
10231;DHT22;62604;49.432;8.680;2022-12-24T16:13:18;10.60;99.90
10231;DHT22;62604;49.432;8.680;2022-12-24T16:15:50;10.60;99.90